createdAt,value
2022-08-09T00:00:33.935Z,1020.87
2022-08-09T00:01:54.304Z,1020.90
2022-08-09T00:02:34.545Z,1020.84
2022-08-09T00:04:06.192Z,1020.85
2022-08-09T00:04:35.385Z,1020.85
2022-08-09T00:06:15.884Z,1020.80
2022-08-09T00:06:33.943Z,1020.82
2022-08-09T00:07:44.440Z,1020.82
2022-08-09T00:08:33.949Z,1020.80
2022-08-09T00:09:33.951Z,1020.82
2022-08-09T00:10:33.947Z,1020.84
2022-08-09T00:12:02.757Z,1020.86
2022-08-09T00:12:34.560Z,1020.81
2022-08-09T00:13:33.953Z,1020.87
2022-08-09T00:14:38.245Z,1020.84
2022-08-09T00:15:57.932Z,1020.84
2022-08-09T00:16:38.258Z,1020.85
2022-08-09T00:18:05.315Z,1020.80
2022-08-09T00:18:34.904Z,1020.84
2022-08-09T00:19:34.250Z,1020.82
2022-08-09T00:20:34.237Z,1020.73
2022-08-09T00:21:33.969Z,1020.75
2022-08-09T00:22:35.307Z,1020.76
2022-08-09T00:23:56.505Z,1020.75
2022-08-09T00:24:33.974Z,1020.75
2022-08-09T00:25:34.421Z,1020.78
2022-08-09T00:26:33.973Z,1020.70
2022-08-09T00:27:36.244Z,1020.76
2022-08-09T00:28:34.642Z,1020.76
2022-08-09T00:30:10.159Z,1020.73
2022-08-09T00:30:33.977Z,1020.72
2022-08-09T00:31:59.150Z,1020.73
2022-08-09T00:32:33.981Z,1020.70
2022-08-09T00:33:48.957Z,1020.75
2022-08-09T00:34:33.984Z,1020.76
2022-08-09T00:35:42.842Z,1020.72
2022-08-09T00:36:33.986Z,1020.80
2022-08-09T00:37:33.990Z,1020.77
2022-08-09T00:38:33.988Z,1020.77
2022-08-09T00:40:09.028Z,1020.80
2022-08-09T00:40:34.037Z,1020.79
2022-08-09T00:44:10.714Z,1020.77
2022-08-09T00:44:11.527Z,1020.79
2022-08-09T00:44:16.792Z,1020.75
2022-08-09T00:44:34.468Z,1020.80
2022-08-09T00:45:34.771Z,1020.82
2022-08-09T00:46:55.414Z,1020.82
2022-08-09T00:47:35.972Z,1020.77
2022-08-09T00:48:34.003Z,1020.79
2022-08-09T00:49:34.008Z,1020.77
2022-08-09T00:50:34.010Z,1020.80
2022-08-09T00:51:54.566Z,1020.79
2022-08-09T00:52:34.412Z,1020.73
2022-08-09T00:53:34.015Z,1020.79
2022-08-09T00:54:36.353Z,1020.78
2022-08-09T00:56:04.604Z,1020.81
2022-08-09T00:56:34.015Z,1020.84
2022-08-09T00:57:35.826Z,1020.86
2022-08-09T00:58:34.021Z,1020.80
2022-08-09T00:59:41.457Z,1020.85
2022-08-09T01:00:35.177Z,1020.84
2022-08-09T01:01:44.590Z,1020.88
2022-08-09T01:02:34.276Z,1020.87
2022-08-09T01:03:34.036Z,1020.86
2022-08-09T01:04:34.026Z,1020.86
2022-08-09T01:05:51.746Z,1020.84
2022-08-09T01:06:53.269Z,1020.84
2022-08-09T01:07:37.953Z,1020.88
2022-08-09T01:08:34.035Z,1020.84
2022-08-09T01:09:36.493Z,1020.83
2022-08-09T01:10:34.038Z,1020.87
2022-08-09T01:11:34.038Z,1020.81
2022-08-09T01:12:34.268Z,1020.82
2022-08-09T01:13:41.738Z,1020.85
2022-08-09T01:14:34.041Z,1020.86
2022-08-09T01:15:34.045Z,1020.85
2022-08-09T01:16:35.117Z,1020.85
2022-08-09T01:17:34.423Z,1020.83
2022-08-09T01:18:34.050Z,1020.80
2022-08-09T01:19:42.565Z,1020.81
2022-08-09T01:20:34.052Z,1020.79
2022-08-09T01:21:40.952Z,1020.84
2022-08-09T01:22:34.474Z,1020.81
2022-08-09T01:24:02.558Z,1020.82
2022-08-09T01:24:34.056Z,1020.80
2022-08-09T01:25:41.614Z,1020.84
2022-08-09T01:26:34.060Z,1020.78
2022-08-09T01:27:34.061Z,1020.81
2022-08-09T01:28:34.063Z,1020.84
2022-08-09T01:29:40.929Z,1020.82
2022-08-09T01:30:51.959Z,1020.80
2022-08-09T01:32:31.397Z,1020.81
2022-08-09T01:32:34.602Z,1020.79
2022-08-09T01:33:34.071Z,1020.80
2022-08-09T01:34:34.070Z,1020.78
2022-08-09T01:35:38.274Z,1020.80
2022-08-09T01:36:34.073Z,1020.77
2022-08-09T01:38:05.661Z,1020.78
2022-08-09T01:38:34.074Z,1020.76
2022-08-09T01:39:34.131Z,1020.79
2022-08-09T01:40:34.078Z,1020.79
2022-08-09T01:41:34.082Z,1020.81
2022-08-09T01:42:34.231Z,1020.80
2022-08-09T01:43:42.203Z,1020.80
2022-08-09T01:44:34.119Z,1020.79
2022-08-09T01:45:34.088Z,1020.82
2022-08-09T01:46:34.086Z,1020.79
2022-08-09T01:47:34.091Z,1020.79
2022-08-09T01:48:34.090Z,1020.76
2022-08-09T01:49:38.912Z,1020.77
2022-08-09T01:50:37.256Z,1020.77
2022-08-09T01:51:34.097Z,1020.78
2022-08-09T01:52:34.096Z,1020.78
2022-08-09T01:53:41.638Z,1020.80
2022-08-09T01:54:34.097Z,1020.76
2022-08-09T01:55:34.097Z,1020.78
2022-08-09T01:56:34.101Z,1020.77
2022-08-09T01:57:40.109Z,1020.71
2022-08-09T01:58:34.102Z,1020.75
2022-08-09T01:59:40.959Z,1020.72
2022-08-09T02:00:34.733Z,1020.67
2022-08-09T02:01:59.279Z,1020.76
2022-08-09T02:02:34.349Z,1020.75
2022-08-09T02:03:34.109Z,1020.77
2022-08-09T02:04:34.113Z,1020.73
2022-08-09T02:05:37.626Z,1020.74
2022-08-09T02:06:34.116Z,1020.74
2022-08-09T02:08:35.615Z,1020.78
2022-08-09T02:08:39.539Z,1020.75
2022-08-09T02:09:41.827Z,1020.72
2022-08-09T02:10:34.118Z,1020.72
2022-08-09T02:11:42.153Z,1020.75
2022-08-09T02:12:34.324Z,1020.71
2022-08-09T02:13:37.216Z,1020.73
2022-08-09T02:14:34.127Z,1020.77
2022-08-09T02:15:36.321Z,1020.77
2022-08-09T02:16:52.781Z,1020.80
2022-08-09T02:18:00.251Z,1020.84
2022-08-09T02:18:34.132Z,1020.82
2022-08-09T02:19:38.777Z,1020.78
2022-08-09T02:20:34.369Z,1020.83
2022-08-09T02:21:34.245Z,1020.77
2022-08-09T02:22:34.907Z,1020.85
2022-08-09T02:23:39.784Z,1020.84
2022-08-09T02:24:34.136Z,1020.81
2022-08-09T02:25:42.544Z,1020.86
2022-08-09T02:26:34.140Z,1020.84
2022-08-09T02:27:57.396Z,1020.82
2022-08-09T02:28:34.146Z,1020.82
2022-08-09T02:29:34.161Z,1020.78
2022-08-09T02:30:34.494Z,1020.89
2022-08-09T02:31:36.363Z,1020.87
2022-08-09T02:32:34.270Z,1020.90
2022-08-09T02:33:38.314Z,1020.83
2022-08-09T02:34:40.273Z,1020.85
2022-08-09T02:36:02.902Z,1020.86
2022-08-09T02:36:34.154Z,1020.81
2022-08-09T02:37:36.669Z,1020.81
2022-08-09T02:38:34.865Z,1020.82
2022-08-09T02:39:42.144Z,1020.79
2022-08-09T02:40:34.229Z,1020.82
2022-08-09T02:41:34.173Z,1020.80
2022-08-09T02:42:34.445Z,1020.77
2022-08-09T02:43:42.649Z,1020.78
2022-08-09T02:44:34.160Z,1020.74
2022-08-09T02:45:34.159Z,1020.82
2022-08-09T02:46:34.165Z,1020.80
2022-08-09T02:47:58.121Z,1020.80
2022-08-09T02:48:34.164Z,1020.77
2022-08-09T02:49:40.996Z,1020.78
2022-08-09T02:50:34.169Z,1020.81
2022-08-09T02:51:39.966Z,1020.82
2022-08-09T02:52:35.284Z,1020.80
2022-08-09T02:53:34.289Z,1020.80
2022-08-09T02:54:34.171Z,1020.78
2022-08-09T02:55:53.572Z,1020.79
2022-08-09T02:56:34.172Z,1020.76
2022-08-09T02:57:40.495Z,1020.76
2022-08-09T02:58:36.737Z,1020.76
2022-08-09T02:59:36.320Z,1020.77
2022-08-09T03:00:34.252Z,1020.81
2022-08-09T03:01:43.132Z,1020.80
2022-08-09T03:02:34.568Z,1020.77
2022-08-09T03:04:12.350Z,1020.78
2022-08-09T03:04:34.180Z,1020.82
2022-08-09T03:05:34.932Z,1020.77
2022-08-09T03:06:34.179Z,1020.76
2022-08-09T03:07:34.185Z,1020.78
2022-08-09T03:08:34.188Z,1020.81
2022-08-09T03:09:34.183Z,1020.80
2022-08-09T03:10:34.188Z,1020.76
2022-08-09T03:12:05.837Z,1020.70
2022-08-09T03:12:34.535Z,1020.75
2022-08-09T03:13:43.789Z,1020.71
2022-08-09T03:14:34.194Z,1020.72
2022-08-09T03:16:04.131Z,1020.70
2022-08-09T03:16:37.385Z,1020.70
2022-08-09T03:17:34.194Z,1020.65
2022-08-09T03:18:34.192Z,1020.73
2022-08-09T03:19:52.236Z,1020.66
2022-08-09T03:20:34.198Z,1020.70
2022-08-09T03:21:39.495Z,1020.67
2022-08-09T03:22:41.335Z,1020.65
2022-08-09T03:23:34.198Z,1020.71
2022-08-09T03:24:42.475Z,1020.73
2022-08-09T03:25:59.259Z,1020.66
2022-08-09T03:26:34.203Z,1020.69
2022-08-09T03:27:37.439Z,1020.70
2022-08-09T03:28:34.203Z,1020.72
2022-08-09T03:29:35.583Z,1020.69
2022-08-09T03:30:36.855Z,1020.72
2022-08-09T03:31:34.210Z,1020.72
2022-08-09T03:32:37.182Z,1020.72
2022-08-09T03:33:54.481Z,1020.71
2022-08-09T03:34:34.210Z,1020.68
2022-08-09T03:35:44.416Z,1020.77
2022-08-09T03:36:34.213Z,1020.76
2022-08-09T03:37:56.518Z,1020.79
2022-08-09T03:38:34.214Z,1020.76
2022-08-09T03:39:37.902Z,1020.75
2022-08-09T03:40:34.217Z,1020.76
2022-08-09T03:41:45.968Z,1020.77
2022-08-09T03:42:34.394Z,1020.73
2022-08-09T03:43:34.216Z,1020.77
2022-08-09T03:44:34.223Z,1020.77
2022-08-09T03:46:05.127Z,1020.74
2022-08-09T03:46:34.254Z,1020.76
2022-08-09T03:47:36.497Z,1020.73
2022-08-09T03:48:34.225Z,1020.74
2022-08-09T03:49:35.783Z,1020.78
2022-08-09T03:50:34.227Z,1020.76
2022-08-09T03:51:57.431Z,1020.77
2022-08-09T03:52:34.453Z,1020.77
2022-08-09T03:53:36.982Z,1020.73
2022-08-09T03:54:34.365Z,1020.76
2022-08-09T03:55:36.268Z,1020.78
2022-08-09T03:56:34.231Z,1020.73
2022-08-09T03:57:34.233Z,1020.77
2022-08-09T03:58:34.238Z,1020.77
2022-08-09T03:59:52.954Z,1020.76
2022-08-09T04:00:34.260Z,1020.79
2022-08-09T04:01:34.238Z,1020.83
2022-08-09T04:02:34.417Z,1020.78
2022-08-09T04:03:46.390Z,1020.83
2022-08-09T04:04:38.698Z,1020.84
2022-08-09T04:05:40.383Z,1020.83
2022-08-09T04:06:34.246Z,1020.84
2022-08-09T04:07:53.028Z,1020.86
2022-08-09T04:08:34.249Z,1020.89
2022-08-09T04:09:42.102Z,1020.86
2022-08-09T04:10:34.249Z,1020.85
2022-08-09T04:11:34.249Z,1020.86
2022-08-09T04:12:34.249Z,1020.87
2022-08-09T04:14:37.214Z,1020.88
2022-08-09T04:14:54.056Z,1020.84
2022-08-09T04:15:52.310Z,1020.85
2022-08-09T04:16:34.253Z,1020.89
2022-08-09T04:17:34.257Z,1020.93
2022-08-09T04:18:34.255Z,1020.94
2022-08-09T04:19:42.719Z,1020.92
2022-08-09T04:20:34.259Z,1020.97
2022-08-09T04:21:38.490Z,1020.97
2022-08-09T04:22:34.356Z,1020.99
2022-08-09T04:23:34.256Z,1021.00
2022-08-09T04:24:34.258Z,1020.99
2022-08-09T04:25:34.259Z,1021.03
2022-08-09T04:26:37.906Z,1021.03
2022-08-09T04:27:34.260Z,1021.06
2022-08-09T04:28:36.618Z,1021.04
2022-08-09T04:29:34.264Z,1021.08
2022-08-09T04:30:34.263Z,1021.06
2022-08-09T04:31:37.698Z,1021.06
2022-08-09T04:32:37.258Z,1021.11
2022-08-09T04:33:34.265Z,1021.17
2022-08-09T04:34:34.269Z,1021.14
2022-08-09T04:35:34.269Z,1021.15
2022-08-09T04:36:34.275Z,1021.16
2022-08-09T04:37:45.392Z,1021.20
2022-08-09T04:38:34.346Z,1021.17
2022-08-09T04:39:34.306Z,1021.18
2022-08-09T04:40:36.572Z,1021.18
2022-08-09T04:41:43.399Z,1021.17
2022-08-09T04:42:35.659Z,1021.19
2022-08-09T04:43:35.809Z,1021.22
2022-08-09T04:44:34.278Z,1021.21
2022-08-09T04:45:35.820Z,1021.20
2022-08-09T04:46:56.911Z,1021.20
2022-08-09T04:47:59.314Z,1021.20
2022-08-09T04:48:34.283Z,1021.24
2022-08-09T04:49:54.816Z,1021.22
2022-08-09T04:50:34.887Z,1021.20
2022-08-09T04:51:34.286Z,1021.18
2022-08-09T04:52:34.479Z,1021.20
2022-08-09T04:53:34.289Z,1021.21
2022-08-09T04:54:34.289Z,1021.21
2022-08-09T04:55:38.979Z,1021.22
2022-08-09T04:56:34.290Z,1021.22
2022-08-09T04:57:53.732Z,1021.21
2022-08-09T04:58:34.323Z,1021.24
2022-08-09T04:59:34.298Z,1021.25
2022-08-09T05:00:34.512Z,1021.22
2022-08-09T05:01:34.304Z,1021.26
2022-08-09T05:02:34.601Z,1021.29
2022-08-09T05:03:43.543Z,1021.31
2022-08-09T05:04:34.345Z,1021.31
2022-08-09T05:05:51.768Z,1021.32
2022-08-09T05:06:35.958Z,1021.33
2022-08-09T05:07:34.300Z,1021.34
2022-08-09T05:08:34.311Z,1021.33
2022-08-09T05:09:45.427Z,1021.32
2022-08-09T05:10:34.307Z,1021.32
2022-08-09T05:11:35.973Z,1021.33
2022-08-09T05:12:34.523Z,1021.30
2022-08-09T05:13:34.312Z,1021.35
2022-08-09T05:14:34.308Z,1021.37
2022-08-09T05:15:38.604Z,1021.40
2022-08-09T05:16:34.324Z,1021.39
2022-08-09T05:18:38.170Z,1021.39
2022-08-09T05:18:42.486Z,1021.42
2022-08-09T05:19:45.976Z,1021.44
2022-08-09T05:20:34.324Z,1021.45
2022-08-09T05:21:46.442Z,1021.48
2022-08-09T05:23:51.121Z,1021.45
2022-08-09T05:23:58.227Z,1021.52
2022-08-09T05:24:34.320Z,1021.49
2022-08-09T05:25:34.325Z,1021.49
2022-08-09T05:26:36.862Z,1021.47
2022-08-09T05:27:34.322Z,1021.50
2022-08-09T05:28:34.327Z,1021.51
2022-08-09T05:29:35.671Z,1021.50
2022-08-09T05:30:34.331Z,1021.52
2022-08-09T05:31:44.479Z,1021.49
2022-08-09T05:32:34.546Z,1021.53
2022-08-09T05:33:34.331Z,1021.49
2022-08-09T05:34:34.335Z,1021.55
2022-08-09T05:35:46.688Z,1021.57
2022-08-09T05:36:34.332Z,1021.54
2022-08-09T05:37:47.763Z,1021.54
2022-08-09T05:38:34.337Z,1021.57
2022-08-09T05:39:36.216Z,1021.54
2022-08-09T05:40:34.345Z,1021.57
2022-08-09T05:41:34.338Z,1021.55
2022-08-09T05:42:34.654Z,1021.50
2022-08-09T05:43:34.343Z,1021.60
2022-08-09T05:44:34.558Z,1021.60
2022-08-09T05:45:52.982Z,1021.60
2022-08-09T05:46:34.344Z,1021.58
2022-08-09T05:47:34.347Z,1021.58
2022-08-09T05:48:34.350Z,1021.57
2022-08-09T05:50:23.401Z,1021.59
2022-08-09T05:50:39.989Z,1021.57
2022-08-09T05:51:46.145Z,1021.58
2022-08-09T05:52:34.654Z,1021.57
2022-08-09T05:53:37.234Z,1021.59
2022-08-09T05:54:34.352Z,1021.62
2022-08-09T05:55:34.354Z,1021.63
2022-08-09T05:56:34.353Z,1021.66
2022-08-09T05:57:56.172Z,1021.65
2022-08-09T05:58:34.359Z,1021.63
2022-08-09T05:59:34.354Z,1021.63
2022-08-09T06:00:34.374Z,1021.62
2022-08-09T06:01:42.365Z,1021.66
2022-08-09T06:02:34.769Z,1021.62
2022-08-09T06:03:34.749Z,1021.61
2022-08-09T06:04:35.087Z,1021.65
2022-08-09T06:05:54.625Z,1021.64
2022-08-09T06:06:34.361Z,1021.64
2022-08-09T06:07:34.372Z,1021.64
2022-08-09T06:08:34.368Z,1021.66
2022-08-09T06:09:53.963Z,1021.65
2022-08-09T06:10:34.366Z,1021.69
2022-08-09T06:11:40.859Z,1021.65
2022-08-09T06:12:34.561Z,1021.69
2022-08-09T06:13:34.384Z,1021.65
2022-08-09T06:14:34.374Z,1021.69
2022-08-09T06:15:34.371Z,1021.70
2022-08-09T06:16:34.370Z,1021.68
2022-08-09T06:17:39.165Z,1021.71
2022-08-09T06:18:34.372Z,1021.72
2022-08-09T06:19:34.373Z,1021.70
2022-08-09T06:20:34.374Z,1021.72
2022-08-09T06:21:34.381Z,1021.72
2022-08-09T06:22:34.620Z,1021.75
2022-08-09T06:23:57.627Z,1021.75
2022-08-09T06:24:34.379Z,1021.72
2022-08-09T06:25:34.567Z,1021.70
2022-08-09T06:26:34.379Z,1021.72
2022-08-09T06:27:41.327Z,1021.73
2022-08-09T06:28:34.382Z,1021.69
2022-08-09T06:29:34.386Z,1021.71
2022-08-09T06:30:34.380Z,1021.77
2022-08-09T06:31:40.095Z,1021.75
2022-08-09T06:33:13.560Z,1021.77
2022-08-09T06:33:41.465Z,1021.75
2022-08-09T06:34:34.392Z,1021.76
2022-08-09T06:35:35.846Z,1021.76
2022-08-09T06:36:34.393Z,1021.72
2022-08-09T06:37:52.871Z,1021.72
2022-08-09T06:38:37.739Z,1021.74
2022-08-09T06:39:48.248Z,1021.73
2022-08-09T06:40:34.439Z,1021.74
2022-08-09T06:42:08.076Z,1021.73
2022-08-09T06:42:34.618Z,1021.72
2022-08-09T06:43:34.577Z,1021.73
2022-08-09T06:44:34.395Z,1021.75
2022-08-09T06:46:07.168Z,1021.72
2022-08-09T06:46:40.248Z,1021.76
2022-08-09T06:47:39.713Z,1021.74
2022-08-09T06:48:34.399Z,1021.78
2022-08-09T06:50:11.311Z,1021.77
2022-08-09T06:50:34.399Z,1021.79
2022-08-09T06:51:39.857Z,1021.80
2022-08-09T06:52:34.548Z,1021.79
2022-08-09T06:53:38.440Z,1021.80
2022-08-09T06:54:34.404Z,1021.79
2022-08-09T06:55:34.408Z,1021.82
2022-08-09T06:56:34.407Z,1021.76
2022-08-09T06:58:02.020Z,1021.77
2022-08-09T07:00:49.403Z,1021.76
2022-08-09T07:00:51.714Z,1021.80
2022-08-09T07:00:57.273Z,1021.82
2022-08-09T07:01:53.532Z,1021.81
2022-08-09T07:02:34.756Z,1021.77
2022-08-09T07:03:39.565Z,1021.81
2022-08-09T07:04:34.416Z,1021.77
2022-08-09T07:06:02.192Z,1021.82
2022-08-09T07:06:34.498Z,1021.82
2022-08-09T07:07:59.996Z,1021.83
2022-08-09T07:08:34.434Z,1021.83
2022-08-09T07:09:54.553Z,1021.83
2022-08-09T07:10:34.425Z,1021.83
2022-08-09T07:11:51.966Z,1021.84
2022-08-09T07:12:38.598Z,1021.87
2022-08-09T07:13:45.217Z,1021.84
2022-08-09T07:14:34.429Z,1021.85
2022-08-09T07:16:38.829Z,1021.87
2022-08-09T07:16:43.303Z,1021.89
2022-08-09T07:17:39.833Z,1021.89
2022-08-09T07:18:34.446Z,1021.84
2022-08-09T07:19:34.443Z,1021.88
2022-08-09T07:20:34.443Z,1021.87
2022-08-09T07:21:34.443Z,1021.87
2022-08-09T07:22:36.262Z,1021.90
2022-08-09T07:23:36.250Z,1021.88
2022-08-09T07:24:40.313Z,1021.91
2022-08-09T07:25:38.909Z,1021.91
2022-08-09T07:26:34.446Z,1021.90
2022-08-09T07:27:42.987Z,1021.93
2022-08-09T07:28:34.665Z,1021.90
2022-08-09T07:29:38.075Z,1021.92
2022-08-09T07:30:34.450Z,1021.89
2022-08-09T07:31:38.226Z,1021.88
2022-08-09T07:32:34.985Z,1021.88
2022-08-09T07:33:52.831Z,1021.86
2022-08-09T07:34:34.454Z,1021.86
2022-08-09T07:35:53.191Z,1021.82
2022-08-09T07:36:34.461Z,1021.83
2022-08-09T07:37:43.850Z,1021.81
2022-08-09T07:38:34.461Z,1021.82
2022-08-09T07:39:41.173Z,1021.83
2022-08-09T07:41:00.461Z,1021.85
2022-08-09T07:41:38.929Z,1021.84
2022-08-09T07:42:34.554Z,1021.84
2022-08-09T07:43:41.198Z,1021.86
2022-08-09T07:44:51.210Z,1021.84
2022-08-09T07:45:39.354Z,1021.76
2022-08-09T07:46:34.473Z,1021.79
2022-08-09T07:47:49.597Z,1021.80
2022-08-09T07:48:34.481Z,1021.84
2022-08-09T07:49:34.488Z,1021.84
2022-08-09T07:50:36.556Z,1021.84
2022-08-09T07:52:05.548Z,1021.88
2022-08-09T07:52:35.653Z,1021.83
2022-08-09T07:54:01.659Z,1021.86
2022-08-09T07:54:34.488Z,1021.83
2022-08-09T07:55:41.670Z,1021.84
2022-08-09T07:56:34.499Z,1021.84
2022-08-09T07:57:35.881Z,1021.86
2022-08-09T07:58:34.495Z,1021.88
2022-08-09T07:59:52.167Z,1021.86
2022-08-09T08:00:36.193Z,1021.82
2022-08-09T08:01:34.638Z,1021.89
2022-08-09T08:02:34.882Z,1021.84
2022-08-09T08:03:36.935Z,1021.83
2022-08-09T08:04:34.507Z,1021.88
2022-08-09T08:05:54.346Z,1021.86
2022-08-09T08:06:35.198Z,1021.91
2022-08-09T08:08:44.386Z,1021.90
2022-08-09T08:09:00.089Z,1021.92
2022-08-09T08:09:42.985Z,1021.95
2022-08-09T08:10:34.774Z,1021.98
2022-08-09T08:12:23.870Z,1022.00
2022-08-09T08:12:34.601Z,1021.98
2022-08-09T08:13:44.993Z,1021.98
2022-08-09T08:14:34.527Z,1021.97
2022-08-09T08:15:35.565Z,1021.95
2022-08-09T08:16:34.768Z,1022.00
2022-08-09T08:17:51.875Z,1022.06
2022-08-09T08:18:34.538Z,1022.03
2022-08-09T08:19:34.544Z,1022.09
2022-08-09T08:20:34.546Z,1022.11
2022-08-09T08:21:34.549Z,1022.13
2022-08-09T08:22:34.701Z,1022.16
2022-08-09T08:23:34.977Z,1022.22
2022-08-09T08:24:40.653Z,1022.31
2022-08-09T08:25:43.968Z,1022.17
2022-08-09T08:26:55.042Z,1022.20
2022-08-09T08:27:40.594Z,1022.35
2022-08-09T08:28:35.059Z,1022.25
2022-08-09T08:29:39.580Z,1022.30
2022-08-09T08:30:34.577Z,1022.33
2022-08-09T08:32:02.434Z,1022.35
2022-08-09T08:32:34.599Z,1022.38
2022-08-09T08:33:40.621Z,1022.44
2022-08-09T08:34:36.291Z,1022.37
2022-08-09T08:35:53.088Z,1022.37
2022-08-09T08:36:34.607Z,1022.47
2022-08-09T08:37:42.007Z,1022.49
2022-08-09T08:38:34.618Z,1022.50
2022-08-09T08:39:43.419Z,1022.46
2022-08-09T08:40:34.630Z,1022.50
2022-08-09T08:41:50.653Z,1022.44
2022-08-09T08:42:34.756Z,1022.53
2022-08-09T08:43:34.650Z,1022.59
2022-08-09T08:44:34.658Z,1022.52
2022-08-09T08:45:37.066Z,1022.47
2022-08-09T08:46:41.418Z,1022.56
2022-08-09T08:47:34.682Z,1022.51
2022-08-09T08:48:34.682Z,1022.53
2022-08-09T08:49:46.418Z,1022.54
2022-08-09T08:50:34.697Z,1022.43
2022-08-09T08:51:41.614Z,1022.48
2022-08-09T08:52:57.768Z,1022.50
2022-08-09T08:53:37.252Z,1022.43
2022-08-09T08:54:34.724Z,1022.30
2022-08-09T08:55:34.733Z,1022.21
2022-08-09T08:56:35.231Z,1022.24
2022-08-09T08:57:35.944Z,1022.19
2022-08-09T08:58:36.088Z,1022.24
2022-08-09T08:59:46.465Z,1022.28
2022-08-09T09:00:35.046Z,1022.26
2022-08-09T09:01:44.679Z,1022.25
2022-08-09T09:02:35.210Z,1022.19
2022-08-09T09:03:37.869Z,1022.19
2022-08-09T09:04:47.435Z,1022.23
2022-08-09T09:05:58.238Z,1022.24
2022-08-09T09:06:34.804Z,1022.24
2022-08-09T09:07:36.853Z,1022.21
2022-08-09T09:08:38.143Z,1022.18
2022-08-09T09:09:58.728Z,1022.21
2022-08-09T09:10:34.824Z,1022.25
2022-08-09T09:11:38.638Z,1022.21
2022-08-09T09:12:35.783Z,1022.19
2022-08-09T09:13:50.250Z,1022.22
2022-08-09T09:14:34.843Z,1022.21
2022-08-09T09:15:34.850Z,1022.18
2022-08-09T09:16:35.781Z,1022.22
2022-08-09T09:17:49.021Z,1022.22
2022-08-09T09:18:34.857Z,1022.23
2022-08-09T09:19:41.294Z,1022.15
2022-08-09T09:20:34.871Z,1022.17
2022-08-09T09:21:43.368Z,1022.12
2022-08-09T09:22:35.235Z,1022.15
2022-08-09T09:23:34.887Z,1022.19
2022-08-09T09:24:34.928Z,1022.13
2022-08-09T09:26:01.809Z,1022.15
2022-08-09T09:26:34.897Z,1022.14
2022-08-09T09:28:06.959Z,1022.19
2022-08-09T09:29:01.833Z,1022.16
2022-08-09T09:29:58.082Z,1022.15
2022-08-09T09:30:42.039Z,1022.17
2022-08-09T09:32:03.726Z,1022.07
2022-08-09T09:32:35.681Z,1022.07
2022-08-09T09:33:44.856Z,1022.10
2022-08-09T09:34:34.924Z,1022.12
2022-08-09T09:35:34.925Z,1022.13
2022-08-09T09:36:34.925Z,1022.17
2022-08-09T09:37:34.930Z,1022.14
2022-08-09T09:38:36.539Z,1022.12
2022-08-09T09:39:50.238Z,1022.19
2022-08-09T09:40:34.994Z,1022.15
2022-08-09T09:41:48.646Z,1022.13
2022-08-09T09:42:35.279Z,1022.13
2022-08-09T09:44:10.322Z,1022.09
2022-08-09T09:44:34.950Z,1022.01
2022-08-09T09:45:56.893Z,1022.08
2022-08-09T09:46:46.104Z,1022.05
2022-08-09T09:47:37.978Z,1021.97
2022-08-09T09:48:34.966Z,1021.98
2022-08-09T09:50:07.025Z,1022.01
2022-08-09T09:50:34.987Z,1022.02
2022-08-09T09:51:38.352Z,1022.08
2022-08-09T09:52:37.235Z,1022.05
2022-08-09T09:53:57.269Z,1022.02
2022-08-09T09:54:34.989Z,1022.06
2022-08-09T09:55:35.036Z,1022.05
2022-08-09T09:56:34.991Z,1022.11
2022-08-09T09:58:02.951Z,1022.21
2022-08-09T09:58:34.992Z,1022.20
2022-08-09T09:59:35.558Z,1022.16
2022-08-09T10:00:35.006Z,1022.22
2022-08-09T10:01:38.145Z,1022.21
2022-08-09T10:02:35.172Z,1022.20
2022-08-09T10:03:35.070Z,1022.20
2022-08-09T10:04:35.056Z,1022.18
2022-08-09T10:06:04.074Z,1022.15
2022-08-09T10:06:35.033Z,1022.18
2022-08-09T10:07:35.065Z,1022.16
2022-08-09T10:08:54.181Z,1022.18
2022-08-09T10:09:35.028Z,1022.16
2022-08-09T10:10:35.028Z,1022.18
2022-08-09T10:12:00.875Z,1022.17
2022-08-09T10:12:35.049Z,1022.21
2022-08-09T10:13:43.180Z,1022.18
2022-08-09T10:14:35.054Z,1022.20
2022-08-09T10:16:08.650Z,1022.16
2022-08-09T10:16:58.004Z,1022.18
2022-08-09T10:17:50.487Z,1022.17
2022-08-09T10:18:35.052Z,1022.15
2022-08-09T10:19:35.057Z,1022.13
2022-08-09T10:20:40.394Z,1022.15
2022-08-09T10:21:35.061Z,1022.13
2022-08-09T10:22:35.211Z,1022.13
2022-08-09T10:23:35.070Z,1022.16
2022-08-09T10:24:35.709Z,1022.12
2022-08-09T10:26:06.460Z,1022.11
2022-08-09T10:26:35.073Z,1022.14
2022-08-09T10:27:38.763Z,1022.13
2022-08-09T10:28:35.174Z,1022.15
2022-08-09T10:30:49.491Z,1022.12
2022-08-09T10:32:42.309Z,1022.15
2022-08-09T10:34:08.752Z,1022.15
2022-08-09T10:34:35.796Z,1022.07
2022-08-09T10:35:35.099Z,1022.06
2022-08-09T10:36:35.524Z,1022.07
2022-08-09T10:37:38.953Z,1022.06
2022-08-09T10:38:56.470Z,1022.04
2022-08-09T10:39:40.560Z,1022.02
2022-08-09T10:40:40.505Z,1022.01
2022-08-09T10:41:35.118Z,1022.08
2022-08-09T10:42:35.130Z,1022.06
2022-08-09T10:43:47.120Z,1022.10
2022-08-09T10:44:35.138Z,1022.09
2022-08-09T10:45:35.390Z,1022.09
2022-08-09T10:46:47.437Z,1022.06
2022-08-09T10:48:16.674Z,1022.07
2022-08-09T10:48:36.874Z,1022.10
2022-08-09T10:49:51.063Z,1022.04
2022-08-09T10:50:35.146Z,1022.05
2022-08-09T10:51:41.305Z,1022.00
2022-08-09T10:52:35.585Z,1022.04
2022-08-09T10:53:39.330Z,1021.97
2022-08-09T10:54:35.160Z,1022.00
2022-08-09T10:55:55.068Z,1022.02
2022-08-09T10:56:35.164Z,1022.04
2022-08-09T10:57:37.690Z,1021.97
2022-08-09T10:58:37.178Z,1021.99
2022-08-09T10:59:43.210Z,1021.95
2022-08-09T11:00:35.289Z,1022.02
2022-08-09T11:03:11.242Z,1022.03
2022-08-09T11:03:14.430Z,1022.02
2022-08-09T11:03:50.727Z,1022.03
2022-08-09T11:04:35.382Z,1022.02
2022-08-09T11:05:35.227Z,1021.98
2022-08-09T11:06:37.244Z,1021.98
2022-08-09T11:07:57.393Z,1022.00
2022-08-09T11:08:35.208Z,1022.03
2022-08-09T11:09:37.201Z,1022.03
2022-08-09T11:10:35.205Z,1021.97
2022-08-09T11:11:35.206Z,1021.98
2022-08-09T11:12:35.599Z,1022.01
2022-08-09T11:13:50.156Z,1022.04
2022-08-09T11:14:35.221Z,1022.03
2022-08-09T11:15:50.623Z,1022.06
2022-08-09T11:16:36.944Z,1022.04
2022-08-09T11:17:35.229Z,1022.01
2022-08-09T11:18:35.228Z,1022.04
2022-08-09T11:20:07.999Z,1021.99
2022-08-09T11:20:35.238Z,1021.98
2022-08-09T11:21:35.241Z,1021.95
2022-08-09T11:22:35.390Z,1021.92
2022-08-09T11:23:35.243Z,1021.89
2022-08-09T11:24:35.247Z,1021.90
2022-08-09T11:25:44.953Z,1022.03
2022-08-09T11:26:35.252Z,1021.91
2022-08-09T11:28:05.637Z,1021.93
2022-08-09T11:28:54.107Z,1021.90
2022-08-09T11:30:06.118Z,1021.85
2022-08-09T11:30:35.757Z,1021.82
2022-08-09T11:31:36.818Z,1021.84
2022-08-09T11:32:35.274Z,1021.80
2022-08-09T11:33:35.274Z,1021.81
2022-08-09T11:34:35.275Z,1021.83
2022-08-09T11:35:50.421Z,1021.87
2022-08-09T11:36:36.841Z,1021.83
2022-08-09T11:37:40.829Z,1021.87
2022-08-09T11:38:35.290Z,1021.81
2022-08-09T11:39:38.128Z,1021.78
2022-08-09T11:40:35.297Z,1021.74
2022-08-09T11:41:38.512Z,1021.72
2022-08-09T11:42:35.300Z,1021.70
2022-08-09T11:43:35.305Z,1021.72
2022-08-09T11:44:35.310Z,1021.74
2022-08-09T11:45:37.808Z,1021.72
2022-08-09T11:46:35.314Z,1021.68
2022-08-09T11:47:35.315Z,1021.63
2022-08-09T11:48:35.931Z,1021.63
2022-08-09T11:49:42.913Z,1021.64
2022-08-09T11:50:55.202Z,1021.64
2022-08-09T11:52:56.629Z,1021.61
2022-08-09T11:53:03.552Z,1021.67
2022-08-09T11:53:55.226Z,1021.63
2022-08-09T11:54:35.571Z,1021.65
2022-08-09T11:55:53.794Z,1021.66
2022-08-09T11:56:47.806Z,1021.67
2022-08-09T11:57:59.673Z,1021.66
2022-08-09T11:58:35.365Z,1021.68
2022-08-09T11:59:35.352Z,1021.65
2022-08-09T12:00:35.356Z,1021.63
2022-08-09T12:02:17.863Z,1021.68
2022-08-09T12:02:39.828Z,1021.62
2022-08-09T12:03:56.925Z,1021.63
2022-08-09T12:04:38.069Z,1021.59
2022-08-09T12:05:39.584Z,1021.62
2022-08-09T12:06:35.514Z,1021.57
2022-08-09T12:07:42.259Z,1021.62